Moffett Field NAS, California
Current Conditions -  °F | °C
As of 9:56 AM on Saturday 20 Dec 2014 (Local Time) from KNUQ Reporting Station
Overcast Overcast  
Wind Chill: 58°   Ceiling: 5000
Heat Index: 58°   Visibility: 10mi
Dew Point: 56°   Wind: 0mph
Humidity: 93%   Direction: NA
Pressure: 30.23"   Gusts: NA
Location:  37.4154°N, 122.058°W
Report Text: KNUQ 201756Z 00000KT 10SM BKN050 OVC085 14/13 A3023 RMK AO2 SLP239 60000 T01440133 10144 20128 51023
Loading
Personal Weather Stations






























Interactive Weather Map New forecast layout! Learn more

10-Day Weather Forecast

Advertisements
Track Severe Weather on mobile